Wetterdaten: Woche 24.05.10 - 30.05.10 (KW21)
Datum Zeit Temp. A. Feuchte A. Luftdruck Regen Wind Richtung Taupunkt Windchill Windben
24.05.2010 00:00 16,4 C 74 % 1015,8 hPa 0,0 l/m 0,7 km/h N-NW 11,7 C 16,4 C 3,6 km/h
24.05.2010 01:00 16,1 C 75 % 1015,4 hPa 0,0 l/m 0,4 km/h N 11,6 C 16,1 C 4,0 km/h
24.05.2010 02:00 15,7 C 76 % 1015,3 hPa 0,0 l/m 0,3 km/h N 11,5 C 15,7 C 2,0 km/h
24.05.2010 03:00 15,0 C 77 % 1015,1 hPa 0,0 l/m 0,0 km/h N 11,0 C 15,0 C 0,8 km/h
24.05.2010 04:00 13,9 C 81 % 1014,6 hPa 0,0 l/m 0,2 km/h NW 10,7 C 13,9 C 2,0 km/h
24.05.2010 05:00 14,8 C 80 % 1014,4 hPa 0,0 l/m 0,6 km/h N 11,3 C 14,8 C 2,4 km/h
24.05.2010 06:00 14,9 C 80 % 1014,2 hPa 0,0 l/m 0,2 km/h N 11,4 C 14,9 C 3,2 km/h
24.05.2010 07:00 16,5 C 73 % 1014,0 hPa 0,0 l/m 1,3 km/h S-SW 11,6 C 16,5 C 9,6 km/h
24.05.2010 08:00 18,3 C 67 % 1014,0 hPa 0,0 l/m 2,6 km/h NW 12,1 C 18,3 C 12,5 km/h
24.05.2010 09:00 20,1 C 61 % 1013,7 hPa 0,0 l/m 3,9 km/h N-NW 12,3 C 20,1 C 15,3 km/h
24.05.2010 10:00 21,0 C 56 % 1013,5 hPa 0,0 l/m 3,8 km/h S-SW 11,9 C 21,0 C 14,1 km/h
24.05.2010 11:00 21,5 C 57 % 1013,5 hPa 0,0 l/m 3,2 km/h S-SO 12,5 C 21,5 C 14,1 km/h
24.05.2010 12:00 22,9 C 54 % 1012,9 hPa 0,0 l/m 4,6 km/h N-NW 13,1 C 22,9 C 13,7 km/h
24.05.2010 13:00 24,1 C 48 % 1012,2 hPa 0,0 l/m 4,9 km/h O 12,5 C 24,1 C 20,9 km/h
24.05.2010 14:00 24,0 C 48 % 1011,4 hPa 0,0 l/m 4,9 km/h NW 12,3 C 24,0 C 16,1 km/h
24.05.2010 15:00 24,8 C 46 % 1010,5 hPa 0,0 l/m 4,2 km/h W 12,2 C 24,8 C 19,3 km/h
24.05.2010 16:00 25,3 C 43 % 1009,3 hPa 0,0 l/m 4,7 km/h W-NW 11,6 C 25,3 C 16,5 km/h
24.05.2010 17:00 25,0 C 41 % 1008,6 hPa 0,0 l/m 4,9 km/h SW 10,8 C 25,0 C 16,9 km/h
24.05.2010 18:00 24,6 C 43 % 1008,3 hPa 0,0 l/m 3,6 km/h S-SW 11,2 C 24,6 C 14,9 km/h
24.05.2010 19:00 24,1 C 43 % 1008,0 hPa 0,0 l/m 2,5 km/h W 10,7 C 24,1 C 11,3 km/h
24.05.2010 20:00 22,9 C 46 % 1007,7 hPa 0,0 l/m 1,2 km/h SW 10,7 C 22,9 C 7,2 km/h
24.05.2010 21:00 21,1 C 53 % 1007,8 hPa 0,0 l/m 2,8 km/h SW 11,1 C 21,1 C 8,4 km/h
24.05.2010 22:00 19,5 C 59 % 1008,7 hPa 0,0 l/m 1,9 km/h N-NO 11,2 C 19,5 C 7,2 km/h
24.05.2010 23:00 18,4 C 64 % 1011,0 hPa 0,5 l/m 6,7 km/h N-NO 11,3 C 18,1 C 18,5 km/h
25.05.2010 00:00 16,7 C 75 % 1010,7 hPa 0,0 l/m 0,4 km/h N-NO 12,2 C 16,7 C 2,8 km/h
25.05.2010 01:00 15,7 C 80 % 1010,2 hPa 0,0 l/m 0,6 km/h SW 12,3 C 15,7 C 4,4 km/h
25.05.2010 02:00 14,9 C 82 % 1010,2 hPa 0,0 l/m 0,3 km/h N 11,8 C 14,9 C 2,8 km/h
25.05.2010 03:00 14,8 C 83 % 1010,0 hPa 0,0 l/m 0,5 km/h N 11,9 C 14,8 C 4,8 km/h
25.05.2010 04:00 14,8 C 84 % 1009,8 hPa 0,0 l/m 0,2 km/h N 12,0 C 14,8 C 2,8 km/h
25.05.2010 05:00 14,4 C 85 % 1009,9 hPa 0,0 l/m 0,1 km/h N 11,8 C 14,4 C 1,2 km/h
25.05.2010 06:00 14,1 C 86 % 1009,9 hPa 0,0 l/m 0,0 km/h S-SW 11,8 C 14,1 C 0,0 km/h
25.05.2010 07:00 14,8 C 87 % 1010,2 hPa 0,0 l/m 0,5 km/h N 12,5 C 14,8 C 4,0 km/h
25.05.2010 08:00 15,8 C 85 % 1010,3 hPa 0,0 l/m 0,1 km/h N 13,2 C 15,8 C 2,0 km/h
25.05.2010 09:00 16,9 C 83 % 1011,0 hPa 5,2 l/m 0,9 km/h N-NW 13,8 C 16,9 C 4,0 km/h
25.05.2010 10:00 17,4 C 84 % 1010,8 hPa 0,0 l/m 0,4 km/h N 14,6 C 17,4 C 3,2 km/h
25.05.2010 11:00 18,5 C 79 % 1011,2 hPa 0,0 l/m 1,6 km/h N-NO 14,8 C 18,5 C 6,0 km/h
25.05.2010 12:00 19,7 C 79 % 1010,7 hPa 0,0 l/m 1,3 km/h O 15,8 C 19,7 C 5,2 km/h
25.05.2010 13:00 20,9 C 72 % 1010,0 hPa 0,0 l/m 1,1 km/h O-SO 15,5 C 20,9 C 6,4 km/h
25.05.2010 14:00 21,9 C 70 % 1009,3 hPa 0,0 l/m 1,3 km/h SO 16,2 C 21,9 C 10,9 km/h
25.05.2010 15:00 24,3 C 61 % 1008,0 hPa 0,0 l/m 3,1 km/h N-NW 16,3 C 24,3 C 14,5 km/h
25.05.2010 16:00 26,7 C 49 % 1007,1 hPa 0,0 l/m 7,1 km/h SW 14,8 C 26,4 C 25,3 km/h
25.05.2010 17:00 20,9 C 78 % 1008,6 hPa 1,6 l/m 4,7 km/h N-NO 16,9 C 20,8 C 11,3 km/h
25.05.2010 18:00 20,2 C 78 % 1008,8 hPa 0,0 l/m 1,3 km/h O-NO 16,2 C 20,2 C 4,0 km/h
25.05.2010 19:00 19,5 C 79 % 1008,9 hPa 0,0 l/m 0,7 km/h O-NO 15,7 C 19,5 C 3,6 km/h
25.05.2010 20:00 18,2 C 84 % 1009,0 hPa 0,3 l/m 0,0 km/h N 15,4 C 18,2 C 0,8 km/h
25.05.2010 21:00 17,4 C 86 % 1009,4 hPa 0,0 l/m 0,1 km/h N 14,9 C 17,4 C 1,6 km/h
25.05.2010 22:00 16,6 C 86 % 1009,8 hPa 0,0 l/m 0,0 km/h N 14,2 C 16,6 C 0,8 km/h
25.05.2010 23:00 15,9 C 88 % 1010,0 hPa 0,0 l/m 0,1 km/h N 13,9 C 15,9 C 1,6 km/h
26.05.2010 00:00 15,4 C 88 % 1009,8 hPa 0,0 l/m 0,0 km/h N 13,4 C 15,4 C 0,0 km/h
26.05.2010 01:00 14,7 C 88 % 1009,5 hPa 0,0 l/m 0,0 km/h N 12,7 C 14,7 C 0,0 km/h
26.05.2010 02:00 14,4 C 89 % 1009,2 hPa 0,0 l/m 0,0 km/h N 12,6 C 14,4 C 0,0 km/h
26.05.2010 03:00 14,2 C 89 % 1008,4 hPa 0,0 l/m 0,0 km/h N 12,4 C 14,2 C 0,0 km/h
26.05.2010 04:00 13,8 C 89 % 1008,0 hPa 0,0 l/m 0,0 km/h N 12,1 C 13,8 C 0,4 km/h
26.05.2010 05:00 14,3 C 90 % 1007,2 hPa 0,0 l/m 0,3 km/h N 12,6 C 14,3 C 3,6 km/h
26.05.2010 06:00 14,9 C 91 % 1007,5 hPa 0,0 l/m 0,0 km/h N 13,4 C 14,9 C 1,2 km/h
26.05.2010 07:00 15,3 C 91 % 1009,1 hPa 0,5 l/m 1,1 km/h N 13,8 C 15,3 C 6,4 km/h
26.05.2010 08:00 15,8 C 91 % 1008,9 hPa 0,0 l/m 1,0 km/h N 14,3 C 15,8 C 4,0 km/h
26.05.2010 09:00 16,5 C 88 % 1008,7 hPa 0,0 l/m 0,1 km/h N 14,5 C 16,5 C 0,8 km/h
26.05.2010 10:00 18,2 C 85 % 1008,4 hPa 0,0 l/m 0,6 km/h N 15,5 C 18,2 C 3,6 km/h
26.05.2010 11:00 20,3 C 78 % 1008,1 hPa 0,3 l/m 0,7 km/h S-SW 16,3 C 20,3 C 4,8 km/h
26.05.2010 12:00 21,2 C 73 % 1008,1 hPa 0,0 l/m 0,8 km/h N 16,2 C 21,2 C 4,8 km/h
26.05.2010 13:00 21,6 C 72 % 1008,0 hPa 0,0 l/m 0,5 km/h N 16,3 C 21,6 C 2,8 km/h
26.05.2010 14:00 22,0 C 64 % 1007,9 hPa 0,0 l/m 1,2 km/h S-SW 14,8 C 22,0 C 6,0 km/h
26.05.2010 15:00 22,1 C 64 % 1007,8 hPa 0,0 l/m 1,7 km/h N-NW 14,9 C 22,1 C 7,2 km/h
26.05.2010 16:00 20,7 C 72 % 1008,4 hPa 0,0 l/m 3,1 km/h S-SO 15,4 C 20,5 C 12,5 km/h
26.05.2010 17:00 19,7 C 75 % 1007,8 hPa 0,0 l/m 5,1 km/h SO 15,1 C 19,7 C 18,1 km/h
26.05.2010 18:00 20,0 C 72 % 1007,6 hPa 0,0 l/m 2,0 km/h SO 14,7 C 20,0 C 11,6 km/h
26.05.2010 19:00 19,1 C 75 % 1007,3 hPa 0,0 l/m 0,4 km/h N 14,5 C 19,1 C 4,4 km/h
26.05.2010 20:00 18,4 C 77 % 1007,1 hPa 0,0 l/m 0,6 km/h S-SW 14,2 C 18,4 C 5,6 km/h
26.05.2010 21:00 17,5 C 82 % 1007,1 hPa 0,0 l/m 0,0 km/h N 14,3 C 17,5 C 1,2 km/h
26.05.2010 22:00 16,8 C 85 % 1007,0 hPa 0,0 l/m 0,0 km/h N 14,2 C 16,8 C 0,0 km/h
26.05.2010 23:00 15,9 C 88 % 1007,2 hPa 0,0 l/m 0,2 km/h N 13,8 C 15,9 C 2,0 km/h
27.05.2010 00:00 16,8 C 81 % 1007,6 hPa 0,0 l/m 1,7 km/h W-SW 13,5 C 16,8 C 8,1 km/h
27.05.2010 01:00 16,8 C 74 % 1006,7 hPa 0,0 l/m 0,6 km/h W-SW 12,1 C 16,8 C 5,6 km/h
27.05.2010 02:00 16,2 C 77 % 1006,3 hPa 0,0 l/m 0,2 km/h N 12,2 C 16,2 C 3,6 km/h
27.05.2010 03:00 15,9 C 80 % 1006,3 hPa 0,0 l/m 0,2 km/h N 12,4 C 15,9 C 4,0 km/h
27.05.2010 04:00 15,7 C 82 % 1006,3 hPa 0,0 l/m 0,2 km/h N 12,6 C 15,7 C 2,0 km/h
27.05.2010 05:00 15,1 C 84 % 1006,4 hPa 0,0 l/m 0,0 km/h N 12,5 C 15,1 C 0,4 km/h
27.05.2010 06:00 15,1 C 87 % 1006,7 hPa 0,0 l/m 0,1 km/h N 12,9 C 15,1 C 2,0 km/h
27.05.2010 07:00 16,0 C 87 % 1007,1 hPa 0,0 l/m 0,0 km/h N 13,8 C 16,0 C 0,4 km/h
27.05.2010 08:00 17,9 C 78 % 1007,7 hPa 0,0 l/m 0,2 km/h N 14,0 C 17,9 C 2,4 km/h
27.05.2010 09:00 19,0 C 73 % 1008,0 hPa 0,0 l/m 0,7 km/h S 14,0 C 19,0 C 5,6 km/h
27.05.2010 10:00 19,5 C 70 % 1008,3 hPa 0,0 l/m 2,4 km/h N-NW 13,8 C 19,5 C 6,8 km/h
27.05.2010 11:00 20,7 C 67 % 1008,2 hPa 0,0 l/m 4,6 km/h N-NW 14,3 C 20,7 C 11,3 km/h
27.05.2010 12:00 18,7 C 77 % 1008,1 hPa 0,8 l/m 1,8 km/h N-NW 14,5 C 18,7 C 6,0 km/h
27.05.2010 13:00 17,3 C 86 % 1008,4 hPa 1,6 l/m 0,2 km/h N 14,8 C 17,3 C 1,6 km/h
27.05.2010 14:00 17,0 C 89 % 1008,3 hPa 2,1 l/m 0,1 km/h N 15,1 C 17,0 C 2,4 km/h
27.05.2010 15:00 17,2 C 90 % 1008,4 hPa 0,8 l/m 0,0 km/h N 15,5 C 17,2 C 1,6 km/h
27.05.2010 16:00 16,8 C 91 % 1008,7 hPa 2,1 l/m 0,2 km/h N 15,3 C 16,8 C 3,2 km/h
27.05.2010 17:00 16,2 C 90 % 1009,1 hPa 1,8 l/m 0,1 km/h N 14,6 C 16,2 C 4,0 km/h
27.05.2010 18:00 15,6 C 89 % 1009,2 hPa 0,0 l/m 0,5 km/h N 13,7 C 15,6 C 6,4 km/h
27.05.2010 19:00 15,9 C 85 % 1009,2 hPa 0,0 l/m 1,7 km/h W-SW 13,4 C 15,9 C 11,7 km/h
27.05.2010 20:00 15,9 C 82 % 1009,3 hPa 0,0 l/m 0,7 km/h SW 12,8 C 15,9 C 6,8 km/h
27.05.2010 21:00 16,0 C 78 % 1009,8 hPa 0,0 l/m 1,3 km/h W-SW 12,2 C 16,0 C 10,4 km/h
27.05.2010 22:00 15,8 C 77 % 1010,2 hPa 0,0 l/m 2,3 km/h W-SW 11,8 C 15,8 C 15,7 km/h
27.05.2010 23:00 15,7 C 76 % 1010,8 hPa 0,0 l/m 2,2 km/h S 11,5 C 15,7 C 10,9 km/h
28.05.2010 00:00 15,7 C 76 % 1011,0 hPa 0,0 l/m 1,7 km/h S 11,5 C 15,7 C 10,9 km/h
28.05.2010 01:00 15,8 C 76 % 1011,2 hPa 0,0 l/m 1,8 km/h S 11,5 C 15,8 C 10,9 km/h
28.05.2010 02:00 15,5 C 75 % 1011,5 hPa 0,0 l/m 2,5 km/h N-NW 11,1 C 15,5 C 7,6 km/h
28.05.2010 03:00 15,0 C 77 % 1011,9 hPa 0,0 l/m 1,6 km/h W-NW 11,0 C 15,0 C 6,0 km/h
28.05.2010 04:00 14,8 C 78 % 1012,0 hPa 0,0 l/m 0,5 km/h N 11,0 C 14,8 C 3,6 km/h
28.05.2010 05:00 14,4 C 80 % 1012,2 hPa 0,0 l/m 0,3 km/h N 10,9 C 14,4 C 2,0 km/h
28.05.2010 06:00 14,0 C 83 % 1012,8 hPa 0,0 l/m 0,9 km/h W-SW 11,1 C 14,0 C 4,4 km/h
28.05.2010 07:00 14,6 C 85 % 1013,3 hPa 0,0 l/m 0,5 km/h N 12,0 C 14,6 C 4,0 km/h
28.05.2010 08:00 15,4 C 84 % 1013,5 hPa 0,0 l/m 0,7 km/h N 12,6 C 15,4 C 3,6 km/h
28.05.2010 09:00 16,9 C 79 % 1013,6 hPa 0,0 l/m 0,7 km/h N 13,2 C 16,9 C 4,4 km/h
28.05.2010 10:00 18,7 C 73 % 1013,6 hPa 0,0 l/m 0,6 km/h O-NO 13,7 C 18,7 C 3,6 km/h
28.05.2010 11:00 20,1 C 71 % 1013,3 hPa 0,0 l/m 0,9 km/h O-SO 14,6 C 20,1 C 4,4 km/h
28.05.2010 12:00 21,0 C 66 % 1013,2 hPa 0,0 l/m 1,1 km/h O-SO 14,3 C 21,0 C 4,8 km/h
28.05.2010 13:00 21,1 C 67 % 1012,8 hPa 0,0 l/m 1,4 km/h O 14,6 C 21,1 C 4,4 km/h
28.05.2010 14:00 21,5 C 63 % 1012,3 hPa 0,0 l/m 1,4 km/h O-SO 14,3 C 21,5 C 4,8 km/h
28.05.2010 15:00 21,5 C 64 % 1011,7 hPa 0,0 l/m 1,3 km/h O-SO 14,3 C 21,5 C 4,0 km/h
28.05.2010 16:00 22,7 C 60 % 1011,5 hPa 0,0 l/m 2,0 km/h SW 14,5 C 22,7 C 10,1 km/h
28.05.2010 17:00 22,9 C 60 % 1011,5 hPa 0,0 l/m 1,7 km/h O-SO 14,7 C 22,9 C 9,3 km/h
28.05.2010 18:00 21,9 C 62 % 1011,7 hPa 0,0 l/m 1,1 km/h S 14,4 C 21,9 C 7,2 km/h
28.05.2010 19:00 21,1 C 65 % 1011,7 hPa 0,0 l/m 3,0 km/h S 14,2 C 21,1 C 12,5 km/h
28.05.2010 20:00 19,9 C 66 % 1012,2 hPa 0,0 l/m 0,4 km/h S 13,3 C 19,9 C 4,0 km/h
28.05.2010 21:00 18,8 C 72 % 1012,8 hPa 0,0 l/m 0,4 km/h N 13,6 C 18,8 C 4,0 km/h
28.05.2010 22:00 18,1 C 73 % 1013,6 hPa 0,0 l/m 0,2 km/h N 13,1 C 18,1 C 2,8 km/h
28.05.2010 23:00 17,9 C 73 % 1014,2 hPa 0,0 l/m 0,9 km/h N-NW 12,9 C 17,9 C 5,2 km/h
29.05.2010 00:00 17,7 C 75 % 1014,9 hPa 0,0 l/m 0,6 km/h O 13,1 C 17,7 C 4,4 km/h
29.05.2010 01:00 17,6 C 71 % 1015,3 hPa 0,0 l/m 0,9 km/h N 12,1 C 17,6 C 4,4 km/h
29.05.2010 02:00 16,9 C 73 % 1015,3 hPa 0,0 l/m 0,3 km/h NO 11,9 C 16,9 C 4,8 km/h
29.05.2010 03:00 16,1 C 77 % 1015,4 hPa 0,0 l/m 1,8 km/h N 12,1 C 16,1 C 5,2 km/h
29.05.2010 04:00 16,2 C 76 % 1015,6 hPa 0,0 l/m 1,6 km/h N-NO 11,8 C 16,2 C 7,2 km/h
29.05.2010 05:00 15,9 C 78 % 1016,5 hPa 0,0 l/m 2,4 km/h N-NO 12,0 C 15,9 C 8,9 km/h
29.05.2010 06:00 15,8 C 78 % 1017,0 hPa 0,0 l/m 3,2 km/h NW 11,9 C 15,8 C 8,9 km/h
29.05.2010 07:00 16,5 C 77 % 1017,7 hPa 0,0 l/m 5,1 km/h NW 12,5 C 16,5 C 12,5 km/h
29.05.2010 08:00 17,2 C 76 % 1018,0 hPa 0,0 l/m 3,4 km/h N-NW 12,8 C 17,2 C 9,7 km/h
29.05.2010 09:00 17,8 C 73 % 1018,3 hPa 0,0 l/m 3,4 km/h NW 12,9 C 17,8 C 9,3 km/h
29.05.2010 10:00 18,8 C 69 % 1018,3 hPa 0,0 l/m 3,6 km/h N 12,9 C 18,8 C 8,4 km/h
29.05.2010 11:00 19,3 C 68 % 1018,4 hPa 0,0 l/m 3,5 km/h N-NW 13,2 C 19,3 C 9,3 km/h
29.05.2010 12:00 20,5 C 63 % 1018,0 hPa 0,0 l/m 3,6 km/h N-NO 13,2 C 20,5 C 9,3 km/h
29.05.2010 13:00 20,8 C 63 % 1017,6 hPa 0,0 l/m 3,5 km/h N-NW 13,4 C 20,8 C 9,3 km/h
29.05.2010 14:00 21,1 C 59 % 1017,0 hPa 0,0 l/m 3,9 km/h NO 12,8 C 21,1 C 9,7 km/h
29.05.2010 15:00 21,9 C 57 % 1016,6 hPa 0,0 l/m 3,0 km/h NO 12,9 C 21,9 C 9,6 km/h
29.05.2010 16:00 21,5 C 57 % 1016,4 hPa 0,0 l/m 2,6 km/h NO 12,5 C 21,5 C 8,0 km/h
29.05.2010 17:00 21,1 C 58 % 1016,2 hPa 0,0 l/m 1,9 km/h NO 12,4 C 21,1 C 6,0 km/h
29.05.2010 18:00 20,3 C 62 % 1016,1 hPa 0,0 l/m 1,6 km/h NO 12,8 C 20,3 C 4,4 km/h
29.05.2010 19:00 19,6 C 66 % 1016,1 hPa 0,0 l/m 0,2 km/h N 13,0 C 19,6 C 2,4 km/h
29.05.2010 20:00 19,0 C 69 % 1016,1 hPa 0,0 l/m 0,0 km/h N 13,2 C 19,0 C 0,0 km/h
29.05.2010 21:00 18,0 C 74 % 1016,2 hPa 0,0 l/m 0,3 km/h N 13,4 C 18,0 C 2,4 km/h
29.05.2010 22:00 17,6 C 75 % 1016,1 hPa 0,0 l/m 0,2 km/h N 13,2 C 17,6 C 3,2 km/h
29.05.2010 23:00 16,9 C 79 % 1015,7 hPa 0,0 l/m 0,0 km/h N 13,2 C 16,9 C 1,2 km/h
30.05.2010 00:00 16,6 C 80 % 1015,3 hPa 0,0 l/m 0,1 km/h N 13,2 C 16,6 C 1,6 km/h
30.05.2010 01:00 16,1 C 84 % 1014,8 hPa 0,0 l/m 0,0 km/h N 13,4 C 16,1 C 0,8 km/h
30.05.2010 02:00 15,8 C 85 % 1014,2 hPa 0,0 l/m 0,0 km/h N 13,2 C 15,8 C 0,8 km/h
30.05.2010 03:00 15,5 C 86 % 1013,5 hPa 0,0 l/m 0,0 km/h N 13,1 C 15,5 C 0,0 km/h
30.05.2010 04:00 15,3 C 88 % 1012,8 hPa 0,0 l/m 0,0 km/h N 13,3 C 15,3 C 0,0 km/h
30.05.2010 05:00 15,0 C 89 % 1012,3 hPa 0,0 l/m 0,0 km/h N 13,3 C 15,0 C 0,0 km/h
30.05.2010 06:00 15,3 C 89 % 1012,2 hPa 0,0 l/m 0,0 km/h N 13,5 C 15,3 C 0,0 km/h
30.05.2010 07:00 15,5 C 89 % 1012,0 hPa 0,0 l/m 0,0 km/h N 13,7 C 15,5 C 0,0 km/h
30.05.2010 08:00 16,5 C 86 % 1011,8 hPa 0,0 l/m 1,0 km/h S-SO 14,1 C 16,5 C 5,6 km/h
30.05.2010 09:00 18,1 C 79 % 1011,3 hPa 0,0 l/m 1,4 km/h S 14,3 C 18,1 C 7,6 km/h
30.05.2010 10:00 19,3 C 74 % 1010,7 hPa 0,0 l/m 0,9 km/h N 14,6 C 19,3 C 8,4 km/h
30.05.2010 11:00 20,3 C 69 % 1009,9 hPa 0,0 l/m 1,4 km/h S 14,3 C 20,3 C 8,9 km/h
30.05.2010 12:00 19,5 C 70 % 1009,4 hPa 0,5 l/m 1,6 km/h S 13,8 C 19,5 C 7,7 km/h
30.05.2010 13:00 15,4 C 87 % 1009,6 hPa 22,6 l/m 1,5 km/h N-NW 13,2 C 15,4 C 6,0 km/h
30.05.2010 14:00 15,5 C 88 % 1009,0 hPa 1,0 l/m 0,3 km/h S 13,5 C 15,5 C 4,0 km/h
30.05.2010 15:00 16,8 C 83 % 1007,9 hPa 0,0 l/m 2,0 km/h S-SW 13,9 C 16,8 C 9,7 km/h
30.05.2010 16:00 16,4 C 80 % 1007,3 hPa 0,3 l/m 0,6 km/h S-SW 13,0 C 16,4 C 6,8 km/h
30.05.2010 17:00 15,8 C 82 % 1006,9 hPa 0,0 l/m 0,0 km/h N 12,8 C 15,8 C 0,8 km/h
30.05.2010 18:00 15,9 C 82 % 1006,8 hPa 0,0 l/m 0,5 km/h N 12,8 C 15,9 C 3,6 km/h
30.05.2010 19:00 16,5 C 79 % 1006,4 hPa 0,0 l/m 0,9 km/h S 12,8 C 16,5 C 5,2 km/h
30.05.2010 20:00 16,1 C 76 % 1006,1 hPa 0,0 l/m 1,3 km/h S-SW 11,7 C 16,1 C 6,4 km/h
30.05.2010 21:00 15,9 C 68 % 1006,2 hPa 0,0 l/m 1,8 km/h S 10,1 C 15,9 C 14,1 km/h
30.05.2010 22:00 15,8 C 68 % 1006,1 hPa 0,0 l/m 3,4 km/h W-SW 9,8 C 15,8 C 20,1 km/h
30.05.2010 23:00 15,5 C 66 % 1006,0 hPa 0,0 l/m 2,8 km/h S-SO 9,2 C 15,5 C 16,5 km/h
Min-Datum _ 24.05.10 24.05.10 30.05.10 - 24.05.10 - 30.05.10 24.05.10 24.05.10
_ Min-Zeit 04:15 17:45 23:45 - 02:30 - 23:00 04:15 03:30
Minimum _ 13,7 C 40 % 1005,9 hPa - 0,0 km/h - 9,0 C 13,7 C 0,0 km/h
Max-Datum _ 25.05.10 26.05.10 29.05.10 30.05.10 25.05.10 - 25.05.10 25.05.10 25.05.10
_ Max-Zeit 16:30 06:00 11:30 13:15 16:45 - 17:15 16:15 16:45
Maximum _ 27,5 C 91 % 1018,6 hPa 22,6 l/m 9,0 km/h
SW
- 17,3 C 27,2 C 29,0 km/h
N-NW
Durchschnitt _ 17,9 C 75 % 1011,0 hPa #41,9 l/m 1,4 km/h N-NW 13,2 C 17,9 C 6,2 km/h